createdAt,value
2018-09-06T00:01:33.830Z,80.50
2018-09-06T00:04:02.090Z,80.80
2018-09-06T00:06:30.387Z,81.30
2018-09-06T00:08:58.780Z,81.50
2018-09-06T00:11:27.004Z,81.50
2018-09-06T00:13:55.294Z,81.70
2018-09-06T00:16:23.728Z,81.70
2018-09-06T00:18:52.229Z,81.80
2018-09-06T00:21:20.410Z,82.20
2018-09-06T00:23:48.607Z,82.60
2018-09-06T00:31:09.392Z,83.10
2018-09-06T00:33:37.616Z,83.40
2018-09-06T00:36:05.807Z,83.50
2018-09-06T00:38:34.072Z,83.30
2018-09-06T00:41:02.360Z,83.60
2018-09-06T00:43:32.072Z,84.00
2018-09-06T00:46:00.260Z,84.10
2018-09-06T00:48:28.440Z,84.10
2018-09-06T00:50:56.708Z,84.00
2018-09-06T00:53:24.970Z,84.10
2018-09-06T00:55:53.174Z,84.00
2018-09-06T00:58:21.486Z,84.00
2018-09-06T01:00:49.710Z,84.40
2018-09-06T01:03:18.110Z,84.40
2018-09-06T01:05:46.314Z,84.10
2018-09-06T01:08:14.507Z,84.40
2018-09-06T01:10:42.782Z,84.60
2018-09-06T01:13:10.959Z,84.70
2018-09-06T01:15:39.176Z,84.90
2018-09-06T01:18:07.560Z,85.20
2018-09-06T01:20:35.794Z,85.10
2018-09-06T01:25:02.852Z,84.90
2018-09-06T01:27:31.114Z,84.60
2018-09-06T01:29:59.468Z,84.40
2018-09-06T01:32:27.663Z,84.30
2018-09-06T01:34:56.031Z,84.60
2018-09-06T01:37:24.316Z,84.90
2018-09-06T01:39:52.535Z,85.60
2018-09-06T01:47:16.469Z,85.10
2018-09-06T01:49:44.672Z,85.10
2018-09-06T01:52:12.836Z,85.50
2018-09-06T01:54:41.213Z,85.70
2018-09-06T01:57:09.434Z,85.70
2018-09-06T01:59:39.441Z,85.50
2018-09-06T02:02:08.334Z,85.50
2018-09-06T02:04:37.158Z,85.60
2018-09-06T02:07:05.676Z,85.50
2018-09-06T02:09:33.988Z,85.40
2018-09-06T02:12:02.184Z,85.40
2018-09-06T02:14:30.404Z,85.40
2018-09-06T02:16:58.702Z,85.30
2018-09-06T02:19:26.936Z,85.20
2018-09-06T02:26:47.665Z,84.90
2018-09-06T02:29:15.814Z,85.60
2018-09-06T02:31:44.336Z,85.60
2018-09-06T02:34:12.667Z,85.70
2018-09-06T02:36:40.962Z,85.80
2018-09-06T02:39:10.618Z,85.80
2018-09-06T02:41:39.215Z,86.10
2018-09-06T02:44:08.056Z,86.60
2018-09-06T02:46:36.280Z,86.80
2018-09-06T02:49:04.537Z,86.80
2018-09-06T02:51:32.777Z,87.00
2018-09-06T02:54:01.098Z,87.50
2018-09-06T02:56:30.719Z,87.50
2018-09-06T02:58:58.917Z,87.30
2018-09-06T03:01:27.084Z,87.40
2018-09-06T03:03:55.263Z,87.50
2018-09-06T03:06:23.484Z,87.60
2018-09-06T03:08:51.688Z,87.70
2018-09-06T03:11:26.288Z,87.80
2018-09-06T03:13:54.491Z,88.10
2018-09-06T03:16:23.012Z,88.20
2018-09-06T03:18:51.316Z,88.00
2018-09-06T03:21:19.789Z,87.70
2018-09-06T03:23:48.941Z,87.40
2018-09-06T03:26:18.269Z,87.50
2018-09-06T03:28:48.083Z,87.60
2018-09-06T03:31:16.729Z,87.50
2018-09-06T03:33:45.656Z,88.20
2018-09-06T03:36:14.100Z,88.10
2018-09-06T03:38:42.369Z,88.00
2018-09-06T03:41:10.547Z,87.80
2018-09-06T03:43:38.766Z,87.70
2018-09-06T03:50:59.476Z,86.90
2018-09-06T03:53:27.657Z,87.80
2018-09-06T03:55:55.830Z,87.80
2018-09-06T03:58:24.179Z,87.90
2018-09-06T04:00:52.403Z,87.90
2018-09-06T04:03:20.579Z,88.10
2018-09-06T04:05:48.853Z,88.10
2018-09-06T04:08:17.046Z,88.20
2018-09-06T04:10:45.277Z,87.70
2018-09-06T04:13:13.619Z,87.60
2018-09-06T04:15:41.921Z,87.50
2018-09-06T04:18:10.171Z,87.60
2018-09-06T04:25:31.429Z,86.60
2018-09-06T04:27:59.690Z,87.30
2018-09-06T04:30:28.016Z,87.50
2018-09-06T04:32:56.390Z,87.70
2018-09-06T04:35:24.689Z,88.00
2018-09-06T04:37:54.246Z,88.00
2018-09-06T04:40:22.484Z,88.70
2018-09-06T04:42:50.735Z,88.00
2018-09-06T04:45:18.973Z,88.20
2018-09-06T04:47:47.317Z,88.30
2018-09-06T04:50:15.589Z,88.30
2018-09-06T04:52:43.918Z,88.20
2018-09-06T04:55:12.193Z,88.00
2018-09-06T04:57:40.437Z,87.70
2018-09-06T05:00:08.719Z,87.40
2018-09-06T05:02:36.926Z,87.30
2018-09-06T05:05:05.605Z,87.20
2018-09-06T05:07:33.836Z,86.60
2018-09-06T05:10:02.094Z,86.10
2018-09-06T05:12:30.377Z,85.80
2018-09-06T05:14:58.715Z,85.70
2018-09-06T05:17:28.278Z,85.30
2018-09-06T05:19:56.558Z,84.70
2018-09-06T05:22:24.833Z,85.60
2018-09-06T05:24:53.269Z,84.50
2018-09-06T05:27:21.507Z,84.60
2018-09-06T05:29:49.748Z,84.10
2018-09-06T05:32:17.993Z,84.60
2018-09-06T05:34:46.211Z,83.30
2018-09-06T05:37:14.690Z,83.30
2018-09-06T05:39:43.034Z,83.30
2018-09-06T05:42:11.344Z,83.10
2018-09-06T05:44:39.605Z,82.70
2018-09-06T05:47:07.902Z,82.30
2018-09-06T05:49:36.102Z,82.50
2018-09-06T05:52:04.616Z,84.40
2018-09-06T05:54:33.127Z,84.50
2018-09-06T05:57:01.357Z,84.70
2018-09-06T05:59:29.604Z,85.80
2018-09-06T06:01:57.980Z,84.60
2018-09-06T06:04:26.234Z,85.30
2018-09-06T06:06:54.526Z,86.00
2018-09-06T06:09:22.917Z,86.20
2018-09-06T06:11:51.292Z,86.70
2018-09-06T06:14:21.032Z,87.10
2018-09-06T06:16:49.212Z,87.80
2018-09-06T06:19:17.521Z,88.30
2018-09-06T06:21:46.476Z,87.70
2018-09-06T06:24:14.697Z,87.50
2018-09-06T06:26:42.868Z,86.80
2018-09-06T06:29:11.172Z,85.90
2018-09-06T06:31:39.546Z,85.60
2018-09-06T06:34:07.772Z,85.70
2018-09-06T06:41:28.482Z,84.10
2018-09-06T06:43:57.051Z,84.20
2018-09-06T06:46:25.262Z,82.90
2018-09-06T06:48:53.529Z,81.80
2018-09-06T06:51:21.719Z,80.60
2018-09-06T06:53:50.024Z,80.60
2018-09-06T06:56:18.492Z,80.80
2018-09-06T06:58:46.709Z,80.30
2018-09-06T07:01:14.998Z,79.70
2018-09-06T07:03:43.319Z,80.20
2018-09-06T07:06:11.607Z,79.70
2018-09-06T07:08:39.983Z,79.70
2018-09-06T07:11:09.145Z,80.40
2018-09-06T07:13:37.369Z,81.10
2018-09-06T07:16:05.622Z,81.40
2018-09-06T07:18:33.938Z,81.40
2018-09-06T07:21:02.425Z,81.50
2018-09-06T07:23:30.827Z,81.80
2018-09-06T07:25:59.054Z,82.70
2018-09-06T07:28:27.340Z,82.50
2018-09-06T07:30:55.730Z,83.40
2018-09-06T07:33:24.239Z,84.30
2018-09-06T07:35:52.533Z,84.90
2018-09-06T07:38:20.864Z,85.40
2018-09-06T07:40:49.117Z,85.10
2018-09-06T07:43:17.416Z,85.30
2018-09-06T07:45:46.106Z,86.20
2018-09-06T07:48:14.408Z,86.20
2018-09-06T07:50:44.307Z,86.70
2018-09-06T07:53:12.549Z,87.10
2018-09-06T07:55:40.800Z,87.70
2018-09-06T07:58:09.031Z,88.20
2018-09-06T08:00:40.368Z,89.20
2018-09-06T08:03:08.848Z,89.50
2018-09-06T08:05:37.046Z,90.10
2018-09-06T08:08:05.272Z,90.20
2018-09-06T08:10:33.525Z,90.30
2018-09-06T08:15:10.556Z,90.50
2018-09-06T08:17:38.966Z,90.80
2018-09-06T08:20:08.137Z,90.80
2018-09-06T08:22:36.379Z,91.30
2018-09-06T08:25:04.792Z,91.50
2018-09-06T08:27:33.134Z,91.90
2018-09-06T08:30:01.397Z,92.10
2018-09-06T08:32:29.661Z,92.10
2018-09-06T08:34:57.859Z,92.50
2018-09-06T08:37:26.323Z,93.10
2018-09-06T08:39:54.697Z,93.20
2018-09-06T08:42:23.197Z,92.90
2018-09-06T08:44:51.480Z,93.10
2018-09-06T08:47:19.685Z,93.50
2018-09-06T08:49:47.944Z,93.20
2018-09-06T08:52:16.207Z,93.20
2018-09-06T08:54:44.729Z,92.80
2018-09-06T08:57:13.124Z,92.80
2018-09-06T08:59:42.462Z,93.00
2018-09-06T09:02:14.077Z,93.00
2018-09-06T09:04:42.284Z,93.30
2018-09-06T09:07:10.446Z,93.70
2018-09-06T09:09:38.725Z,94.00
2018-09-06T09:12:07.002Z,94.00
2018-09-06T09:14:35.214Z,94.00
2018-09-06T09:17:03.442Z,94.40
2018-09-06T09:19:31.716Z,93.90
2018-09-06T09:22:00.209Z,94.00
2018-09-06T09:24:28.404Z,93.50
2018-09-06T09:26:56.626Z,93.60
2018-09-06T09:29:24.879Z,93.30
2018-09-06T09:31:53.093Z,92.80
2018-09-06T09:34:21.365Z,93.30
2018-09-06T09:36:49.617Z,93.40
2018-09-06T09:44:11.816Z,93.70
2018-09-06T09:49:07.439Z,93.80
2018-09-06T09:51:35.664Z,93.60
2018-09-06T09:54:03.925Z,93.80
2018-09-06T09:56:33.252Z,93.80
2018-09-06T09:59:01.493Z,94.10
2018-09-06T10:02:35.465Z,94.50
2018-09-06T10:05:09.184Z,93.40
2018-09-06T10:07:42.844Z,93.90
2018-09-06T10:10:11.127Z,94.20
2018-09-06T10:12:39.407Z,94.20
2018-09-06T10:15:07.625Z,93.40
2018-09-06T10:17:35.939Z,93.70
2018-09-06T10:20:04.167Z,93.90
2018-09-06T10:22:32.515Z,93.70
2018-09-06T10:25:00.836Z,94.00
2018-09-06T10:27:29.454Z,94.50
2018-09-06T10:34:50.532Z,94.20
2018-09-06T10:37:18.851Z,94.90
2018-09-06T10:39:47.085Z,94.50
2018-09-06T19:59:44.288Z,98.50
2018-09-06T20:02:12.694Z,98.80
2018-09-06T20:04:41.640Z,98.90
2018-09-06T20:07:12.878Z,98.80
2018-09-06T20:09:42.081Z,98.70
2018-09-06T20:12:11.413Z,98.90
2018-09-06T20:14:39.865Z,98.60
2018-09-06T20:17:08.112Z,98.60
2018-09-06T20:19:36.846Z,98.60
2018-09-06T20:22:07.393Z,98.60
2018-09-06T20:24:35.670Z,98.40
2018-09-06T20:27:04.098Z,98.30
2018-09-06T20:29:32.871Z,98.40
2018-09-06T20:32:01.170Z,98.30
2018-09-06T20:34:29.828Z,98.40
2018-09-06T20:36:58.095Z,98.40
2018-09-06T20:39:26.683Z,98.30
2018-09-06T20:41:55.856Z,98.40
2018-09-06T20:44:24.816Z,98.50
2018-09-06T20:46:53.206Z,98.00
2018-09-06T20:49:21.551Z,97.80
2018-09-06T20:51:50.001Z,97.60
2018-09-06T20:54:18.456Z,97.80
2018-09-06T20:56:46.739Z,98.00
2018-09-06T20:59:16.027Z,98.00
2018-09-06T21:01:44.204Z,98.00
2018-09-06T21:04:12.446Z,98.10
2018-09-06T21:06:40.749Z,98.00
2018-09-06T21:09:09.841Z,98.00
2018-09-06T21:11:39.226Z,98.10
2018-09-06T21:14:07.590Z,98.10
2018-09-06T21:16:35.824Z,98.20
2018-09-06T21:19:04.205Z,98.30
2018-09-06T21:21:32.768Z,98.10
2018-09-06T21:24:01.061Z,97.90
2018-09-06T21:26:29.909Z,97.80
2018-09-06T21:28:59.369Z,97.70
2018-09-06T21:31:29.123Z,97.70
2018-09-06T21:33:58.900Z,97.70
2018-09-06T21:36:27.436Z,97.30
2018-09-06T21:38:56.104Z,97.40
2018-09-06T21:46:19.538Z,96.60
2018-09-06T21:48:48.241Z,96.30
2018-09-06T21:51:16.594Z,96.60
2018-09-06T21:53:44.889Z,96.10
2018-09-06T21:56:13.154Z,95.50
2018-09-06T21:58:41.634Z,95.90
2018-09-06T22:01:09.986Z,95.90
2018-09-06T22:03:43.572Z,95.90
2018-09-06T22:06:12.058Z,96.10
2018-09-06T22:08:40.342Z,96.10
2018-09-06T22:11:08.661Z,96.10
2018-09-06T22:13:36.884Z,96.30
2018-09-06T22:16:06.182Z,96.20
2018-09-06T22:18:34.727Z,96.50
2018-09-06T22:21:03.107Z,96.70
2018-09-06T22:23:31.388Z,96.60
2018-09-06T22:25:59.618Z,96.90
2018-09-06T22:28:27.894Z,96.90
2018-09-06T22:30:56.165Z,97.10
2018-09-06T22:33:24.605Z,97.10
2018-09-06T22:35:52.880Z,97.10
2018-09-06T22:38:20.998Z,97.10
2018-09-06T22:40:49.193Z,97.00
2018-09-06T22:43:18.191Z,97.00
2018-09-06T22:45:46.716Z,97.00
2018-09-06T22:48:15.028Z,96.80
2018-09-06T22:50:43.283Z,97.00
2018-09-06T22:53:11.534Z,96.90
2018-09-06T22:55:39.781Z,96.90
2018-09-06T22:58:08.310Z,96.80
2018-09-06T23:00:36.541Z,96.60
2018-09-06T23:03:10.137Z,96.60
2018-09-06T23:05:39.201Z,96.60
2018-09-06T23:08:07.457Z,96.60
2018-09-06T23:10:35.694Z,96.50
2018-09-06T23:13:04.176Z,96.30
2018-09-06T23:15:32.362Z,96.40
2018-09-06T23:18:00.654Z,96.40
2018-09-06T23:20:28.933Z,96.60
2018-09-06T23:22:57.174Z,96.50
2018-09-06T23:25:25.512Z,96.50
2018-09-06T23:32:49.197Z,96.70
2018-09-06T23:35:17.640Z,96.40
2018-09-06T23:37:46.480Z,96.50
2018-09-06T23:40:15.965Z,96.40
2018-09-06T23:42:44.802Z,96.60
2018-09-06T23:45:13.379Z,96.40
2018-09-06T23:47:42.388Z,96.50
2018-09-06T23:55:14.003Z,96.60
2018-09-06T23:57:42.321Z,96.90
